Time;durP1;ratioP1;P1;durP2;ratioP2;P2;SDS_P1;SDS_P2;PMS_P1;PMS_P2;Temp;Humidity;BMP_temperature;BMP_pressure;BME280_temperature;BME280_humidity;BME280_pressure;Samples;Min_cycle;Max_cycle;Signal;HPM_P1;HPM_P2
2023/04/14 00:01:04;;;;;;;7.10;5.70;;;8.90;99.90;;;;;;4880030;29;20187;-76
2023/04/14 00:03:29;;;;;;;5.87;4.83;;;8.90;99.90;;;;;;4896901;29;20659;-77
2023/04/14 00:05:55;;;;;;;6.17;5.03;;;8.60;99.90;;;;;;4895391;29;20239;-76
2023/04/14 00:08:21;;;;;;;7.60;4.60;;;8.30;99.90;;;;;;4897105;29;20943;-76
2023/04/14 00:10:47;;;;;;;7.00;5.33;;;8.40;99.90;;;;;;4899204;29;20229;-76
2023/04/14 00:13:12;;;;;;;6.33;4.50;;;8.40;99.90;;;;;;4900075;29;20179;-76
2023/04/14 00:15:41;;;;;;;7.40;4.60;;;8.30;99.90;;;;;;4899381;29;20538;-75
2023/04/14 00:18:06;;;;;;;6.63;4.30;;;8.20;99.90;;;;;;4899876;29;20183;-76
2023/04/14 00:20:32;;;;;;;5.10;4.60;;;8.40;99.90;;;;;;4898806;29;20923;-76
2023/04/14 00:22:58;;;;;;;5.40;4.13;;;8.50;99.90;;;;;;4900014;29;20210;-76
2023/04/14 00:25:24;;;;;;;5.57;4.00;;;8.60;99.90;;;;;;4899733;29;20194;-77
2023/04/14 00:27:49;;;;;;;5.03;3.87;;;8.60;99.90;;;;;;4893424;29;20198;-77
2023/04/14 00:30:15;;;;;;;5.40;4.00;;;8.70;99.90;;;;;;4899688;29;20412;-77
2023/04/14 00:32:41;;;;;;;9.20;4.27;;;8.80;99.90;;;;;;4898151;29;20211;-76
2023/04/14 00:35:07;;;;;;;4.50;4.10;;;8.70;99.90;;;;;;4898397;29;20191;-76
2023/04/14 00:37:33;;;;;;;5.47;4.40;;;8.70;99.90;;;;;;4897812;29;20191;-77
2023/04/14 00:39:58;;;;;;;6.97;4.60;;;8.70;99.90;;;;;;4899070;29;20494;-76
2023/04/14 00:42:24;;;;;;;6.30;3.70;;;8.70;99.90;;;;;;4899614;29;20252;-76
2023/04/14 00:44:50;;;;;;;6.37;4.17;;;8.70;99.90;;;;;;4899289;29;20182;-76
2023/04/14 00:47:16;;;;;;;7.77;4.23;;;8.60;99.90;;;;;;4899804;29;20423;-76
2023/04/14 00:49:43;;;;;;;4.57;4.13;;;8.70;99.90;;;;;;4899125;29;20186;-76
2023/04/14 00:52:09;;;;;;;5.80;4.50;;;8.70;99.90;;;;;;4899399;29;20487;-76
2023/04/14 00:54:36;;;;;;;4.80;3.93;;;8.80;99.90;;;;;;4898914;29;20510;-76
2023/04/14 00:57:04;;;;;;;5.37;4.10;;;8.80;99.90;;;;;;4897919;29;20451;-76
2023/04/14 00:59:30;;;;;;;5.07;4.60;;;8.90;99.90;;;;;;4898241;29;20517;-76
2023/04/14 01:01:56;;;;;;;5.53;4.37;;;8.90;99.90;;;;;;4897738;29;20510;-76
2023/04/14 01:04:22;;;;;;;4.90;4.40;;;8.80;99.90;;;;;;4897871;29;21309;-76
2023/04/14 01:06:48;;;;;;;6.73;5.20;;;8.80;99.90;;;;;;4896665;29;20435;-76
2023/04/14 01:09:15;;;;;;;7.63;4.63;;;8.90;99.90;;;;;;4898428;29;20882;-75
2023/04/14 01:12:18;;;;;;;5.20;4.20;;;8.90;99.90;;;;;;4898611;29;20423;-75
2023/04/14 01:15:03;;;;;;;5.73;4.57;;;8.80;99.90;;;;;;4898420;29;20415;-75
2023/04/14 01:17:43;;;;;;;5.10;4.47;;;8.80;99.90;;;;;;4882368;29;20835;-76
2023/04/14 01:20:31;;;;;;;4.50;4.00;;;8.80;99.90;;;;;;4902352;29;20777;-76
2023/04/14 01:23:10;;;;;;;5.67;5.07;;;8.70;99.90;;;;;;4896496;29;20460;-76
2023/04/14 01:25:51;;;;;;;4.90;4.43;;;8.70;99.90;;;;;;4896745;29;20495;-76
2023/04/14 01:28:44;;;;;;;5.30;4.00;;;8.70;99.90;;;;;;4895585;29;20416;-76
2023/04/14 01:31:19;;;;;;;7.20;4.40;;;8.70;99.90;;;;;;4896472;29;20494;-76
2023/04/14 01:33:55;;;;;;;4.40;4.00;;;8.70;99.90;;;;;;4895715;29;20511;-76
2023/04/14 01:36:38;;;;;;;7.10;4.33;;;8.70;99.90;;;;;;4895595;29;20423;-76
2023/04/14 01:39:09;;;;;;;6.37;4.70;;;8.70;99.90;;;;;;4897715;29;20461;-76
2023/04/14 01:41:38;;;;;;;5.10;4.30;;;8.80;99.90;;;;;;4896853;29;20463;-76
2023/04/14 01:44:07;;;;;;;7.67;5.10;;;8.90;99.90;;;;;;4897973;29;20407;-76
2023/04/14 01:46:35;;;;;;;8.57;4.90;;;8.80;99.90;;;;;;4898707;29;20400;-76
2023/04/14 01:49:01;;;;;;;6.47;4.50;;;8.80;99.90;;;;;;4899107;29;20416;-76
2023/04/14 01:51:29;;;;;;;5.00;4.57;;;8.80;99.90;;;;;;4898987;29;20502;-76
2023/04/14 01:53:58;;;;;;;5.23;4.73;;;8.90;99.90;;;;;;4897808;29;20413;-76
2023/04/14 01:56:25;;;;;;;3.83;3.53;;;8.90;99.90;;;;;;4898551;29;20459;-76
2023/04/14 01:58:54;;;;;;;5.30;4.63;;;8.90;99.90;;;;;;4897466;29;20886;-76
2023/04/14 02:01:21;;;;;;;9.53;4.87;;;8.90;99.90;;;;;;4898709;29;20475;-75
2023/04/14 02:03:48;;;;;;;6.10;4.57;;;8.90;99.90;;;;;;4897621;29;20413;-76
2023/04/14 02:06:16;;;;;;;5.77;4.80;;;9.00;99.90;;;;;;4897683;29;20428;-76
2023/04/14 02:08:42;;;;;;;5.93;4.47;;;9.00;99.90;;;;;;4897623;29;20399;-75
2023/04/14 02:11:10;;;;;;;5.80;4.57;;;9.00;99.90;;;;;;4898601;29;20415;-75
2023/04/14 02:13:39;;;;;;;9.70;4.53;;;9.00;99.90;;;;;;4898083;29;20502;-75
2023/04/14 02:16:07;;;;;;;7.13;4.20;;;9.00;99.90;;;;;;4897852;29;20423;-75
2023/04/14 02:18:34;;;;;;;8.00;4.20;;;9.00;99.90;;;;;;4898451;29;20413;-76
2023/04/14 02:21:02;;;;;;;4.80;4.37;;;9.10;99.90;;;;;;4897616;29;20511;-76
2023/04/14 02:23:28;;;;;;;5.83;5.23;;;9.10;99.90;;;;;;4898630;29;20756;-76
2023/04/14 02:26:07;;;;;;;6.20;4.60;;;9.00;99.90;;;;;;4897796;29;20420;-76
2023/04/14 02:28:40;;;;;;;5.13;4.63;;;9.00;99.90;;;;;;4897420;29;20502;-76
2023/04/14 02:31:12;;;;;;;5.10;4.43;;;9.00;99.90;;;;;;4897574;29;20401;-76
2023/04/14 02:33:38;;;;;;;6.07;4.60;;;8.90;99.90;;;;;;4896648;29;20463;-76
2023/04/14 02:36:19;;;;;;;5.53;4.37;;;8.70;99.90;;;;;;4898420;29;20416;-76
2023/04/14 02:38:54;;;;;;;4.23;3.80;;;8.70;99.90;;;;;;4897375;29;20407;-76
2023/04/14 02:41:25;;;;;;;4.67;4.17;;;8.80;99.90;;;;;;4897628;29;20966;-76
2023/04/14 02:44:13;;;;;;;4.00;3.67;;;8.90;99.90;;;;;;4897293;29;20419;-76
2023/04/14 02:46:44;;;;;;;6.80;4.87;;;8.90;99.90;;;;;;4897138;29;20404;-76
2023/04/14 02:49:15;;;;;;;5.13;4.47;;;8.90;99.90;;;;;;4897697;29;20859;-75
2023/04/14 02:51:44;;;;;;;4.07;3.70;;;8.90;99.90;;;;;;4880254;29;20495;-76
2023/04/14 02:54:11;;;;;;;4.60;3.63;;;8.90;99.90;;;;;;4881230;29;20412;-75
2023/04/14 02:56:37;;;;;;;4.47;4.10;;;8.90;99.90;;;;;;4897346;29;20526;-76
2023/04/14 02:59:03;;;;;;;5.37;4.60;;;8.80;99.90;;;;;;4896924;29;20971;-76
2023/04/14 03:01:31;;;;;;;6.70;4.60;;;8.80;99.90;;;;;;4879026;29;20495;-76
2023/04/14 03:03:58;;;;;;;5.83;4.50;;;8.80;99.90;;;;;;4892853;29;20443;-76
2023/04/14 03:06:26;;;;;;;7.60;5.20;;;8.80;99.90;;;;;;4896818;29;20457;-76
2023/04/14 03:08:54;;;;;;;5.20;4.50;;;8.80;99.90;;;;;;4896810;29;20510;-75
2023/04/14 03:11:20;;;;;;;5.00;4.50;;;8.70;99.90;;;;;;4896569;29;20459;-77
2023/04/14 03:13:51;;;;;;;5.20;4.70;;;8.70;99.90;;;;;;4897002;29;20747;-77
2023/04/14 03:16:20;;;;;;;5.40;4.90;;;8.70;99.90;;;;;;4897315;29;20447;-77
2023/04/14 03:18:49;;;;;;;5.50;5.00;;;8.70;99.90;;;;;;4896129;29;20441;-77
2023/04/14 03:21:18;;;;;;;7.10;5.40;;;8.60;99.90;;;;;;4897539;29;20458;-77
2023/04/14 03:23:45;;;;;;;5.67;5.10;;;8.60;99.90;;;;;;4896633;29;20462;-77
2023/04/14 03:26:16;;;;;;;5.37;4.93;;;8.60;99.90;;;;;;4897437;29;20418;-76
2023/04/14 03:28:42;;;;;;;5.20;4.50;;;8.60;99.90;;;;;;4895774;29;20435;-76
2023/04/14 03:31:10;;;;;;;7.07;4.93;;;8.50;99.90;;;;;;4897308;29;20510;-76
2023/04/14 03:33:37;;;;;;;4.60;4.20;;;8.50;99.90;;;;;;4880061;29;20791;-76
2023/04/14 03:36:05;;;;;;;5.27;4.40;;;8.50;99.90;;;;;;4896369;29;20446;-76
2023/04/14 03:38:33;;;;;;;4.77;4.37;;;8.40;99.90;;;;;;4897306;29;20412;-76
2023/04/14 03:41:02;;;;;;;5.67;4.53;;;8.40;99.90;;;;;;4896059;29;20643;-76
2023/04/14 03:43:28;;;;;;;6.37;4.40;;;8.40;99.90;;;;;;4896745;29;20438;-76
2023/04/14 03:45:54;;;;;;;4.10;3.73;;;8.30;99.90;;;;;;4895630;29;20432;-76
2023/04/14 03:48:20;;;;;;;4.93;4.30;;;8.30;99.90;;;;;;4879480;29;20446;-76
2023/04/14 03:50:50;;;;;;;8.60;4.70;;;8.20;99.90;;;;;;4896223;29;20214;-76
2023/04/14 03:53:20;;;;;;;5.53;4.83;;;8.20;99.90;;;;;;4897086;29;20474;-76
2023/04/14 03:55:48;;;;;;;4.50;4.20;;;8.20;99.90;;;;;;4895111;29;20478;-76
2023/04/14 03:58:16;;;;;;;5.57;4.20;;;8.20;99.90;;;;;;4896816;29;20472;-76
2023/04/14 04:00:43;;;;;;;6.10;3.73;;;8.20;99.90;;;;;;4896391;29;20955;-76
2023/04/14 04:03:09;;;;;;;4.57;3.80;;;8.30;99.90;;;;;;4896091;29;20534;-76
2023/04/14 04:05:39;;;;;;;4.60;4.20;;;8.20;99.90;;;;;;4895144;29;20439;-76
2023/04/14 04:08:07;;;;;;;6.40;3.63;;;8.20;99.90;;;;;;4877613;29;20412;-76
2023/04/14 04:10:34;;;;;;;9.93;4.80;;;8.20;99.90;;;;;;4889054;29;20442;-76
2023/04/14 04:13:01;;;;;;;5.50;4.83;;;8.20;99.90;;;;;;4879489;29;20462;-76
2023/04/14 04:15:29;;;;;;;4.87;3.80;;;8.20;99.90;;;;;;4895391;29;20499;-75
2023/04/14 04:17:58;;;;;;;5.63;3.90;;;8.20;99.90;;;;;;4896113;29;20499;-76
2023/04/14 04:20:25;;;;;;;9.70;4.20;;;8.10;99.90;;;;;;4896686;29;20415;-76
2023/04/14 04:22:54;;;;;;;4.93;4.23;;;8.10;99.90;;;;;;4896018;29;20454;-76
2023/04/14 04:25:20;;;;;;;7.10;4.63;;;8.20;99.90;;;;;;4896722;29;20422;-76
2023/04/14 04:27:46;;;;;;;5.57;5.10;;;8.10;99.90;;;;;;4896081;29;20423;-76
2023/04/14 04:30:13;;;;;;;5.67;5.00;;;8.00;99.90;;;;;;4879996;29;20192;-75
2023/04/14 04:32:39;;;;;;;7.60;5.07;;;8.10;99.90;;;;;;4896446;29;20839;-76
2023/04/14 04:35:07;;;;;;;5.83;4.10;;;8.00;99.90;;;;;;4895931;29;20424;-76
2023/04/14 04:37:33;;;;;;;4.60;4.27;;;8.00;99.90;;;;;;4896678;29;20410;-76
2023/04/14 04:39:59;;;;;;;5.83;5.23;;;8.00;99.90;;;;;;4879199;29;20423;-76
2023/04/14 04:42:25;;;;;;;5.83;5.37;;;8.00;99.90;;;;;;4895871;29;20517;-76
2023/04/14 04:44:51;;;;;;;10.33;5.67;;;7.90;99.90;;;;;;4895155;29;20190;-76
2023/04/14 04:47:17;;;;;;;5.47;5.00;;;7.90;99.90;;;;;;4888410;29;20190;-76
2023/04/14 04:49:42;;;;;;;5.90;5.40;;;7.90;99.90;;;;;;4895784;29;20544;-76
2023/04/14 04:52:08;;;;;;;11.50;6.20;;;8.00;99.90;;;;;;4895207;29;20190;-76
2023/04/14 04:54:34;;;;;;;9.33;6.40;;;8.00;99.90;;;;;;4898458;29;20179;-76
2023/04/14 04:57:00;;;;;;;7.70;5.60;;;7.80;99.90;;;;;;4899008;29;20294;-76
2023/04/14 04:59:26;;;;;;;5.87;5.37;;;7.80;99.90;;;;;;4900005;29;20438;-76
2023/04/14 05:01:52;;;;;;;5.60;5.07;;;7.80;99.90;;;;;;4895886;29;20577;-76
2023/04/14 05:04:17;;;;;;;6.50;5.00;;;7.90;99.90;;;;;;4898441;29;20434;-75
2023/04/14 05:06:43;;;;;;;5.47;4.87;;;7.90;99.90;;;;;;4899609;29;20213;-76
2023/04/14 05:09:09;;;;;;;5.93;4.73;;;7.90;99.90;;;;;;4898908;29;20491;-75
2023/04/14 05:11:35;;;;;;;5.17;4.70;;;8.00;99.90;;;;;;4899200;29;20704;-75
2023/04/14 05:14:01;;;;;;;6.57;5.87;;;8.00;99.90;;;;;;4898139;29;20189;-86
2023/04/14 05:16:27;;;;;;;7.60;7.03;;;8.00;99.90;;;;;;4882970;29;20419;-82
2023/04/14 05:18:53;;;;;;;7.00;6.40;;;8.30;99.90;;;;;;4899243;29;20775;-81
2023/04/14 05:21:19;;;;;;;6.50;5.87;;;8.90;99.90;;;;;;4898981;29;20992;-81
2023/04/14 05:23:46;;;;;;;7.60;5.60;;;9.60;99.90;;;;;;4881435;29;20180;-81
2023/04/14 05:26:12;;;;;;;9.30;5.30;;;10.20;99.90;;;;;;4895613;29;20267;-81
2023/04/14 05:28:39;;;;;;;7.70;6.07;;;10.70;99.90;;;;;;4891792;29;20435;-81
2023/04/14 05:31:05;;;;;;;5.23;4.93;;;11.10;99.90;;;;;;4878770;29;20426;-81
2023/04/14 05:33:31;;;;;;;6.13;5.63;;;11.60;99.90;;;;;;4893619;29;20491;-81
2023/04/14 05:35:57;;;;;;;7.30;5.17;;;11.90;99.90;;;;;;4898148;29;20973;-82
2023/04/14 05:38:22;;;;;;;9.10;6.43;;;12.30;99.90;;;;;;4899379;29;20270;-83
2023/04/14 05:40:48;;;;;;;5.33;4.93;;;12.60;99.90;;;;;;4898622;29;20534;-83
2023/04/14 05:43:15;;;;;;;7.53;5.50;;;12.90;98.80;;;;;;4898034;29;20219;-83
2023/04/14 05:45:41;;;;;;;6.13;5.33;;;13.20;97.00;;;;;;4898940;29;20269;-83
2023/04/14 05:48:07;;;;;;;7.53;5.40;;;13.10;93.70;;;;;;4898063;29;20690;-83
2023/04/14 05:50:34;;;;;;;6.37;5.80;;;13.30;94.10;;;;;;4897693;29;20445;-82
2023/04/14 05:53:00;;;;;;;9.23;5.37;;;13.50;94.50;;;;;;4878277;29;20440;-82
2023/04/14 05:55:26;;;;;;;6.37;5.13;;;13.70;93.90;;;;;;4893321;29;20433;-81
2023/04/14 05:57:52;;;;;;;5.10;4.70;;;13.90;93.40;;;;;;4872714;29;20506;-81
2023/04/14 06:00:18;;;;;;;6.50;4.97;;;14.00;93.10;;;;;;4879825;29;20928;-80
2023/04/14 06:02:44;;;;;;;5.63;5.27;;;14.10;91.10;;;;;;4876325;29;20474;-80
2023/04/14 06:05:11;;;;;;;6.00;5.50;;;14.20;90.90;;;;;;4880596;29;20434;-81
2023/04/14 06:07:38;;;;;;;6.90;6.30;;;14.30;91.50;;;;;;4881854;29;20443;-80
2023/04/14 06:10:04;;;;;;;6.90;5.70;;;14.40;91.30;;;;;;4898273;29;20422;-81
2023/04/14 06:12:30;;;;;;;6.47;5.87;;;14.60;91.10;;;;;;4882469;29;20794;-83
2023/04/14 06:14:56;;;;;;;5.90;5.40;;;14.70;89.20;;;;;;4883740;29;20432;-78
2023/04/14 06:17:22;;;;;;;6.10;5.60;;;14.50;85.90;;;;;;4881645;29;20194;-84
2023/04/14 06:19:48;;;;;;;8.60;5.33;;;14.10;85.20;;;;;;4884247;29;20197;-83
2023/04/14 06:22:18;;;;;;;8.30;5.70;;;13.70;85.70;;;;;;4897227;29;20677;-88
2023/04/14 06:24:47;;;;;;;6.10;5.10;;;13.30;86.90;;;;;;4896885;29;20213;-76
2023/04/14 06:27:13;;;;;;;5.97;5.40;;;13.00;88.40;;;;;;4897426;29;20939;-84
2023/04/14 06:29:39;;;;;;;8.87;5.07;;;12.70;89.80;;;;;;4882043;29;20441;-84
2023/04/14 06:32:05;;;;;;;6.83;5.00;;;12.40;90.60;;;;;;4880004;29;20436;-83
2023/04/14 06:34:31;;;;;;;6.80;6.23;;;12.20;91.20;;;;;;4893261;29;20479;-84
2023/04/14 06:37:00;;;;;;;5.67;4.93;;;12.00;91.90;;;;;;4888347;29;20179;-85
2023/04/14 06:39:29;;;;;;;8.50;4.87;;;11.80;92.60;;;;;;4878398;29;20169;-84
2023/04/14 06:41:55;;;;;;;5.43;4.90;;;11.60;93.30;;;;;;4893189;29;20818;-81
2023/04/14 06:44:21;;;;;;;5.57;5.07;;;11.50;93.70;;;;;;4895940;29;21001;-85
2023/04/14 06:46:47;;;;;;;5.93;4.50;;;11.40;94.10;;;;;;4881394;29;20496;-85
2023/04/14 06:49:14;;;;;;;6.00;4.77;;;11.30;94.70;;;;;;4877154;29;20707;-85
2023/04/14 06:51:40;;;;;;;7.10;5.50;;;11.30;95.10;;;;;;4896031;29;20193;-86
2023/04/14 06:54:05;;;;;;;7.37;5.67;;;11.20;96.00;;;;;;4880278;29;20412;-86
2023/04/14 06:56:31;;;;;;;5.20;4.70;;;11.10;96.70;;;;;;4864989;29;20710;-86
2023/04/14 06:58:57;;;;;;;5.60;5.10;;;11.10;97.70;;;;;;4897061;29;20183;-85
2023/04/14 07:01:22;;;;;;;8.53;6.10;;;11.10;98.40;;;;;;4881026;29;20620;-86
2023/04/14 07:03:48;;;;;;;8.27;6.20;;;11.10;98.70;;;;;;4895730;29;20258;-86
2023/04/14 07:06:15;;;;;;;7.20;5.73;;;11.00;98.90;;;;;;4895572;29;20296;-85
2023/04/14 07:08:42;;;;;;;6.10;5.50;;;11.00;98.90;;;;;;4880935;29;20185;-83
2023/04/14 07:11:10;;;;;;;7.60;5.67;;;11.00;98.50;;;;;;4879953;29;20426;-82
2023/04/14 07:13:37;;;;;;;6.57;5.33;;;11.00;99.00;;;;;;4897307;29;20899;-82
2023/04/14 07:16:05;;;;;;;5.97;5.37;;;11.10;99.50;;;;;;4895372;29;20505;-83
2023/04/14 07:18:31;;;;;;;11.13;6.10;;;11.10;99.90;;;;;;4881035;29;20962;-82
2023/04/14 07:21:00;;;;;;;6.93;6.17;;;11.20;99.90;;;;;;4897001;29;20505;-82
2023/04/14 07:23:26;;;;;;;6.73;5.97;;;11.20;99.90;;;;;;4895350;29;20443;-82
2023/04/14 07:25:56;;;;;;;8.87;6.20;;;11.30;99.90;;;;;;4893539;29;20441;-82
2023/04/14 07:28:23;;;;;;;10.57;6.20;;;11.30;99.90;;;;;;4877676;29;20447;-82
2023/04/14 07:30:50;;;;;;;6.17;5.40;;;11.30;99.90;;;;;;4883144;29;20477;-81
2023/04/14 07:33:17;;;;;;;7.80;5.50;;;11.40;99.90;;;;;;4895362;29;20445;-81
2023/04/14 07:35:51;;;;;;;8.30;6.60;;;11.50;99.90;;;;;;4887174;29;20803;-82
2023/04/14 07:38:18;;;;;;;5.83;5.23;;;11.50;98.70;;;;;;4881368;29;20443;-82
2023/04/14 07:40:43;;;;;;;6.73;6.00;;;11.60;98.80;;;;;;4879577;29;20789;-81
2023/04/14 07:43:09;;;;;;;8.33;5.87;;;11.70;98.80;;;;;;4896219;29;20546;-81
2023/04/14 07:45:36;;;;;;;6.80;5.97;;;11.70;98.50;;;;;;4897363;29;20280;-81
2023/04/14 07:48:01;;;;;;;5.63;5.10;;;11.70;97.80;;;;;;4879943;29;20479;-82
2023/04/14 07:50:27;;;;;;;8.50;5.57;;;11.80;98.00;;;;;;4897086;29;20408;-82
2023/04/14 07:52:53;;;;;;;6.83;5.10;;;11.90;97.40;;;;;;4880352;29;20211;-81
2023/04/14 07:55:19;;;;;;;7.70;5.80;;;12.00;98.20;;;;;;4864411;29;20274;-80
2023/04/14 07:57:45;;;;;;;6.53;4.90;;;12.10;97.90;;;;;;4897241;29;20579;-81
2023/04/14 08:00:11;;;;;;;9.77;4.90;;;12.20;98.70;;;;;;4879261;29;20652;-81
2023/04/14 08:02:37;;;;;;;6.60;6.00;;;12.30;99.20;;;;;;4880067;29;20480;-81
2023/04/14 08:05:04;;;;;;;5.03;4.63;;;12.40;98.60;;;;;;4894638;29;20439;-81
2023/04/14 08:07:30;;;;;;;7.70;5.20;;;12.50;98.10;;;;;;4897010;29;20177;-81
2023/04/14 08:09:56;;;;;;;7.70;6.00;;;12.60;98.80;;;;;;4896542;29;20916;-82
2023/04/14 08:12:23;;;;;;;7.80;5.53;;;12.60;97.40;;;;;;4897512;29;20467;-81
2023/04/14 08:14:49;;;;;;;5.97;4.83;;;12.80;96.80;;;;;;4880369;29;20617;-81
2023/04/14 08:17:15;;;;;;;7.10;4.97;;;12.90;96.60;;;;;;4879281;29;20440;-81
2023/04/14 08:19:41;;;;;;;7.03;5.60;;;13.00;97.70;;;;;;4896943;29;20428;-82
2023/04/14 08:22:07;;;;;;;7.67;6.97;;;13.00;96.40;;;;;;4896381;29;20470;-82
2023/04/14 08:24:32;;;;;;;5.90;3.13;;;13.10;96.60;;;;;;4896378;29;20421;-83
2023/04/14 08:26:59;;;;;;;7.90;4.53;;;13.20;95.40;;;;;;4894190;29;20997;-86
2023/04/14 08:29:25;;;;;;;9.50;5.17;;;13.40;95.50;;;;;;4891457;29;20195;-85
2023/04/14 08:31:51;;;;;;;8.80;4.97;;;13.50;94.70;;;;;;4899984;29;20441;-85
2023/04/14 08:34:17;;;;;;;6.37;3.07;;;13.70;92.40;;;;;;4888453;29;20785;-86
2023/04/14 08:36:43;;;;;;;4.50;3.40;;;13.90;93.00;;;;;;4900391;29;20589;-86
2023/04/14 08:39:08;;;;;;;5.10;4.70;;;13.90;90.50;;;;;;4891850;29;20186;-85
2023/04/14 08:41:37;;;;;;;4.73;3.50;;;14.10;91.30;;;;;;4890370;29;20225;-86
2023/04/14 08:44:03;;;;;;;4.50;4.10;;;14.10;90.50;;;;;;4898079;29;20291;-86
2023/04/14 08:46:30;;;;;;;4.13;3.80;;;14.20;90.60;;;;;;4898574;29;20514;-86
2023/04/14 08:49:06;;;;;;;4.90;3.63;;;14.20;90.50;;;;;;4898834;29;20421;-85
2023/04/14 08:51:41;;;;;;;5.70;3.80;;;14.30;87.80;;;;;;4880870;29;20429;-85
2023/04/14 08:54:09;;;;;;;6.30;3.27;;;14.40;87.70;;;;;;4899044;29;20411;-85
2023/04/14 08:56:40;;;;;;;4.70;4.40;;;14.50;88.30;;;;;;4902667;29;20843;-84
2023/04/14 08:59:07;;;;;;;3.37;3.00;;;14.60;86.10;;;;;;4898821;29;20951;-85
2023/04/14 09:01:34;;;;;;;4.43;3.70;;;14.70;84.10;;;;;;4890510;29;20547;-84
2023/04/14 09:04:03;;;;;;;3.63;3.17;;;14.70;86.10;;;;;;4890237;29;20774;-84
2023/04/14 09:06:33;;;;;;;5.53;3.93;;;14.90;81.60;;;;;;4890417;29;20430;-84
2023/04/14 09:09:07;;;;;;;4.13;3.70;;;15.00;81.60;;;;;;4890805;29;20917;-85
2023/04/14 09:11:33;;;;;;;7.43;3.80;;;15.10;84.30;;;;;;4906668;29;20412;-85
2023/04/14 09:14:00;;;;;;;5.60;3.30;;;15.20;83.60;;;;;;4875081;29;20422;-86
2023/04/14 09:16:27;;;;;;;5.90;4.67;;;15.30;82.60;;;;;;4904045;29;20418;-85
2023/04/14 09:18:54;;;;;;;5.80;3.47;;;15.40;81.80;;;;;;4891113;29;20804;-84
2023/04/14 09:21:20;;;;;;;5.80;3.40;;;15.40;83.80;;;;;;4898514;29;20422;-85
2023/04/14 09:23:46;;;;;;;4.70;3.40;;;15.30;78.40;;;;;;4898669;29;20416;-84
2023/04/14 09:26:12;;;;;;;5.17;4.53;;;15.30;78.90;;;;;;4897735;29;20435;-85
2023/04/14 09:28:39;;;;;;;4.60;3.20;;;15.20;80.10;;;;;;4889517;29;20428;-84
2023/04/14 09:31:05;;;;;;;4.47;2.93;;;15.20;79.40;;;;;;4888726;29;20512;-85
2023/04/14 09:33:32;;;;;;;5.20;2.63;;;15.30;80.40;;;;;;4888898;29;20437;-85
2023/04/14 09:35:58;;;;;;;4.47;2.93;;;15.30;80.40;;;;;;4889033;29;20422;-86
2023/04/14 09:38:51;;;;;;;6.17;3.50;;;15.30;80.50;;;;;;4906235;29;20954;-86
2023/04/14 09:41:20;;;;;;;5.20;3.17;;;15.40;78.90;;;;;;4871406;29;20426;-87
2023/04/14 09:43:46;;;;;;;5.53;3.27;;;15.60;81.00;;;;;;4888562;29;20652;-86
2023/04/14 09:46:14;;;;;;;5.70;3.47;;;15.80;79.60;;;;;;4898047;29;20458;-87
2023/04/14 09:48:53;;;;;;;4.40;2.70;;;16.00;75.10;;;;;;4905420;29;20195;-86
2023/04/14 09:51:29;;;;;;;5.50;4.30;;;16.00;76.60;;;;;;4894015;29;20439;-86
2023/04/14 09:54:03;;;;;;;4.37;3.73;;;16.00;74.20;;;;;;4885632;29;20542;-86
2023/04/14 09:56:29;;;;;;;6.67;4.60;;;16.10;77.30;;;;;;4891092;29;20471;-85
2023/04/14 09:58:59;;;;;;;4.30;3.83;;;16.30;75.20;;;;;;4888795;29;20427;-85
2023/04/14 10:01:30;;;;;;;6.97;4.37;;;16.40;76.80;;;;;;4898054;29;20182;-85
2023/04/14 10:04:01;;;;;;;4.77;2.93;;;16.50;73.70;;;;;;4897293;29;20408;-86
2023/04/14 10:06:27;;;;;;;3.03;2.70;;;16.70;75.00;;;;;;4907192;29;20502;-86
2023/04/14 10:08:54;;;;;;;4.60;3.33;;;16.80;72.90;;;;;;4881082;29;20511;-84
2023/04/14 10:11:24;;;;;;;3.03;2.53;;;17.00;73.50;;;;;;4881289;29;20219;-85
2023/04/14 10:13:56;;;;;;;5.60;3.40;;;17.00;67.10;;;;;;4890977;29;20420;-85
2023/04/14 10:16:23;;;;;;;4.60;2.93;;;17.00;68.40;;;;;;4897285;29;20780;-84
2023/04/14 10:18:50;;;;;;;9.07;3.20;;;17.00;67.60;;;;;;4903822;29;20891;-84
2023/04/14 10:21:16;;;;;;;3.93;3.53;;;17.00;69.10;;;;;;4887622;29;20572;-84
2023/04/14 10:23:43;;;;;;;2.73;2.53;;;17.10;75.00;;;;;;4897222;29;20915;-84
2023/04/14 10:26:11;;;;;;;5.13;4.57;;;17.10;71.80;;;;;;4895835;29;20494;-85
2023/04/14 10:28:42;;;;;;;5.57;3.13;;;16.80;68.40;;;;;;4897258;29;20908;-86
2023/04/14 10:31:14;;;;;;;4.90;2.97;;;16.30;67.30;;;;;;4887871;29;20422;-85
2023/04/14 10:33:41;;;;;;;4.13;3.27;;;15.90;66.10;;;;;;4897529;29;20446;-85
2023/04/14 10:36:08;;;;;;;3.97;3.77;;;15.50;67.90;;;;;;4885117;29;20514;-85
2023/04/14 10:38:42;;;;;;;4.20;3.83;;;15.60;72.60;;;;;;4901964;29;20802;-85
2023/04/14 10:41:09;;;;;;;5.23;4.00;;;15.80;73.40;;;;;;4886119;29;20506;-85
2023/04/14 10:43:36;;;;;;;5.63;3.50;;;15.90;73.60;;;;;;4896063;29;20431;-85
2023/04/14 10:46:03;;;;;;;3.40;3.10;;;15.90;74.00;;;;;;4897549;29;20418;-83
2023/04/14 10:48:40;;;;;;;5.23;4.63;;;16.20;76.90;;;;;;4898117;29;20419;-83
2023/04/14 10:51:09;;;;;;;3.80;3.50;;;16.40;75.20;;;;;;4879398;29;20420;-83
2023/04/14 10:53:54;;;;;;;6.57;3.73;;;16.50;72.80;;;;;;4898029;29;20419;-85
2023/04/14 10:56:21;;;;;;;4.13;3.73;;;16.80;75.60;;;;;;4879373;29;20856;-85
2023/04/14 10:58:55;;;;;;;4.23;3.93;;;17.20;76.60;;;;;;4880867;29;20571;-85
2023/04/14 11:01:31;;;;;;;5.57;4.10;;;17.50;72.20;;;;;;4880177;29;20434;-85
2023/04/14 11:04:10;;;;;;;5.10;4.60;;;17.60;70.00;;;;;;4895920;29;20892;-86
2023/04/14 11:06:45;;;;;;;3.43;2.20;;;17.70;69.30;;;;;;4896701;29;20422;-85
2023/04/14 11:09:30;;;;;;;4.47;4.17;;;17.90;64.70;;;;;;4895375;29;20430;-85
2023/04/14 11:12:20;;;;;;;4.33;4.00;;;17.90;66.50;;;;;;4917509;29;20434;-87
2023/04/14 11:14:47;;;;;;;4.73;4.33;;;18.00;64.10;;;;;;4904175;29;20422;-84
2023/04/14 11:17:20;;;;;;;4.73;4.10;;;17.80;62.70;;;;;;4895856;29;20455;-83
2023/04/14 11:19:46;;;;;;;4.17;3.77;;;17.80;61.80;;;;;;4897989;29;20427;-83
2023/04/14 11:22:12;;;;;;;4.63;2.90;;;17.70;63.60;;;;;;4897097;29;20474;-83
2023/04/14 11:24:38;;;;;;;3.93;3.50;;;17.70;65.30;;;;;;4880111;29;20808;-82
2023/04/14 11:27:04;;;;;;;4.50;3.20;;;17.70;65.50;;;;;;4895482;29;20179;-87
2023/04/14 11:29:30;;;;;;;4.80;4.23;;;17.60;64.50;;;;;;4881396;29;20269;-82
2023/04/14 11:32:05;;;;;;;4.20;3.90;;;17.50;63.80;;;;;;4897641;29;20411;-82
2023/04/14 11:34:33;;;;;;;5.50;3.53;;;17.40;64.60;;;;;;4881274;29;20167;-82
2023/04/14 11:37:01;;;;;;;3.43;3.23;;;17.30;64.60;;;;;;4896418;29;20919;-84
2023/04/14 11:39:28;;;;;;;4.57;3.13;;;17.30;63.60;;;;;;4880678;29;20438;-84
2023/04/14 11:41:55;;;;;;;4.27;2.93;;;17.20;64.30;;;;;;4896766;29;20459;-83
2023/04/14 11:44:21;;;;;;;3.50;3.27;;;17.20;66.50;;;;;;4886568;29;20891;-85
2023/04/14 11:46:48;;;;;;;3.40;3.10;;;17.40;68.30;;;;;;4896712;29;20433;-84
2023/04/14 11:49:14;;;;;;;4.07;3.23;;;17.70;69.60;;;;;;4896372;29;20174;-88
2023/04/14 11:51:42;;;;;;;4.00;3.40;;;17.90;69.10;;;;;;4896668;29;20507;-87
2023/04/14 11:54:10;;;;;;;3.03;2.83;;;18.00;64.00;;;;;;4895073;29;20179;-87
2023/04/14 11:56:36;;;;;;;4.70;3.47;;;18.10;62.60;;;;;;4896659;29;20467;-88
2023/04/14 11:59:03;;;;;;;5.10;4.40;;;18.00;64.40;;;;;;4894009;29;20446;-88
2023/04/14 12:01:29;;;;;;;4.93;4.40;;;18.00;66.40;;;;;;4895159;29;20407;-88
2023/04/14 12:03:56;;;;;;;5.40;4.00;;;17.90;65.30;;;;;;4879746;29;20468;-88
2023/04/14 12:06:22;;;;;;;5.07;3.90;;;17.80;64.50;;;;;;4864435;29;20451;-87
2023/04/14 12:08:52;;;;;;;3.67;3.47;;;17.70;63.20;;;;;;4865228;29;20416;-87
2023/04/14 12:11:18;;;;;;;3.43;3.13;;;17.50;60.90;;;;;;4895529;29;20471;-87
2023/04/14 12:13:45;;;;;;;3.40;3.10;;;17.30;59.90;;;;;;4900269;29;20908;-87
2023/04/14 12:16:13;;;;;;;6.47;3.90;;;17.30;62.00;;;;;;4899934;29;20183;-87
2023/04/14 12:18:39;;;;;;;3.70;3.07;;;17.50;68.10;;;;;;4899304;29;20761;-87
2023/04/14 12:21:05;;;;;;;4.47;3.07;;;17.80;70.90;;;;;;4898673;29;20478;-88
2023/04/14 12:23:36;;;;;;;3.97;3.27;;;18.00;64.20;;;;;;4899421;29;20865;-87
2023/04/14 12:26:02;;;;;;;3.27;2.43;;;18.30;65.50;;;;;;4898618;29;20430;-88
2023/04/14 12:28:29;;;;;;;4.90;2.80;;;18.50;64.70;;;;;;4883315;29;20458;-88
2023/04/14 12:31:02;;;;;;;5.43;3.33;;;18.80;59.40;;;;;;4899195;29;20431;-88
2023/04/14 12:33:29;;;;;;;3.73;2.93;;;19.00;58.90;;;;;;4883431;29;20438;-88
2023/04/14 12:36:14;;;;;;;3.53;3.23;;;19.10;61.50;;;;;;4883273;29;20431;-87
2023/04/14 12:38:40;;;;;;;4.40;4.00;;;19.30;59.00;;;;;;4883371;29;20415;-87
2023/04/14 12:41:06;;;;;;;4.60;3.57;;;19.30;58.80;;;;;;4898206;29;20507;-87
2023/04/14 12:43:34;;;;;;;3.50;3.20;;;19.40;55.80;;;;;;4882910;29;20553;-87
2023/04/14 12:46:02;;;;;;;3.87;3.57;;;19.30;56.90;;;;;;4883448;29;20186;-86
2023/04/14 12:48:43;;;;;;;4.63;2.97;;;19.50;57.70;;;;;;4900106;29;20767;-86
2023/04/14 12:51:17;;;;;;;3.23;2.97;;;19.50;56.30;;;;;;4882336;29;20825;-89
2023/04/14 12:53:45;;;;;;;4.90;3.03;;;19.40;55.80;;;;;;4883404;29;20987;-89
2023/04/14 12:56:21;;;;;;;4.13;3.63;;;19.40;56.70;;;;;;4899169;29;20463;-84